createdAt,value
2022-10-23T00:00:58.326Z,14.00
2022-10-23T00:03:25.454Z,12.90
2022-10-23T00:05:52.364Z,13.20
2022-10-23T00:08:19.179Z,12.10
2022-10-23T00:10:47.407Z,12.00
2022-10-23T00:13:14.240Z,12.00
2022-10-23T00:15:41.086Z,12.10
2022-10-23T00:18:07.996Z,12.10
2022-10-23T00:20:34.812Z,12.10
2022-10-23T00:23:01.684Z,12.10
2022-10-23T00:25:28.539Z,12.80
2022-10-23T00:27:56.735Z,12.10
2022-10-23T00:30:23.710Z,12.30
2022-10-23T00:32:50.602Z,13.00
2022-10-23T00:35:17.498Z,12.00
2022-10-23T00:37:44.604Z,12.00
2022-10-23T00:40:12.518Z,12.90
2022-10-23T00:42:39.762Z,11.90
2022-10-23T00:45:18.720Z,11.90
2022-10-23T00:47:45.638Z,11.90
2022-10-23T00:50:12.869Z,14.20
2022-10-23T00:52:45.102Z,11.90
2022-10-23T00:55:12.335Z,14.00
2022-10-23T00:57:42.193Z,11.90
2022-10-23T01:00:13.892Z,12.80
2022-10-23T01:02:41.102Z,11.80
2022-10-23T01:05:08.987Z,12.10
2022-10-23T01:07:43.028Z,11.80
2022-10-23T01:10:15.540Z,11.80
2022-10-23T01:12:50.656Z,11.70
2022-10-23T01:15:23.247Z,11.70
2022-10-23T01:17:55.361Z,11.60
2022-10-23T01:20:35.861Z,11.60
2022-10-23T01:23:19.222Z,11.60
2022-10-23T01:26:02.315Z,11.60
2022-10-23T01:28:34.226Z,11.50
2022-10-23T01:31:04.730Z,11.70
2022-10-23T01:33:37.398Z,11.40
2022-10-23T01:36:06.666Z,11.40
2022-10-23T01:38:41.657Z,11.40
2022-10-23T01:41:13.668Z,11.30
2022-10-23T01:43:46.376Z,11.30
2022-10-23T01:46:16.834Z,11.30
2022-10-23T01:48:48.533Z,12.90
2022-10-23T01:51:15.924Z,11.20
2022-10-23T01:53:44.511Z,11.20
2022-10-23T01:56:14.328Z,11.20
2022-10-23T01:58:46.624Z,11.20
2022-10-23T02:01:14.929Z,11.20
2022-10-23T02:03:43.879Z,11.10
2022-10-23T02:06:11.238Z,11.10
2022-10-23T02:08:38.386Z,11.10
2022-10-23T02:11:09.539Z,11.70
2022-10-23T02:13:43.924Z,11.00
2022-10-23T02:16:19.184Z,11.00
2022-10-23T02:18:54.616Z,11.10
2022-10-23T02:21:29.354Z,11.00
2022-10-23T02:24:02.430Z,10.90
2022-10-23T02:26:34.165Z,12.00
2022-10-23T02:31:34.280Z,10.90
2022-10-23T02:34:01.125Z,10.90
2022-10-23T02:36:28.048Z,10.90
2022-10-23T02:41:38.272Z,10.80
2022-10-23T02:44:22.924Z,11.00
2022-10-23T02:47:03.033Z,10.70
2022-10-23T02:49:37.450Z,10.70
2022-10-23T02:52:10.596Z,10.70
2022-10-23T02:54:50.851Z,11.90
2022-10-23T02:57:23.850Z,10.70
2022-10-23T03:00:01.074Z,12.40
2022-10-23T03:02:35.706Z,10.70
2022-10-23T03:05:04.657Z,11.70
2022-10-23T03:07:31.977Z,10.70
2022-10-23T03:09:58.757Z,10.70
2022-10-23T03:12:25.600Z,10.60
2022-10-23T03:14:52.721Z,10.60
2022-10-23T03:17:19.508Z,10.60
2022-10-23T03:19:47.636Z,10.50
2022-10-23T03:22:14.490Z,10.50
2022-10-23T03:24:41.306Z,10.50
2022-10-23T03:27:08.105Z,10.50
2022-10-23T03:29:34.881Z,10.50
2022-10-23T03:32:01.665Z,11.40
2022-10-23T03:34:28.477Z,10.50
2022-10-23T03:36:56.622Z,10.90
2022-10-23T03:39:23.540Z,10.50
2022-10-23T03:41:50.371Z,11.70
2022-10-23T03:44:17.420Z,10.50
2022-10-23T03:46:44.298Z,10.50
2022-10-23T03:49:11.184Z,10.50
2022-10-23T03:54:09.940Z,10.50
2022-10-23T03:59:04.653Z,10.50
2022-10-23T04:01:31.658Z,10.50
2022-10-23T04:03:58.536Z,10.50
2022-10-23T04:06:25.451Z,11.10
2022-10-23T04:08:52.373Z,10.40
2022-10-23T04:11:20.580Z,11.20
2022-10-23T04:16:15.010Z,10.40
2022-10-23T04:18:42.300Z,10.50
2022-10-23T04:21:09.502Z,10.50
2022-10-23T04:23:36.598Z,10.50
2022-10-23T04:26:03.523Z,10.50
2022-10-23T04:28:31.676Z,10.50
2022-10-23T04:30:58.512Z,10.50
2022-10-23T04:33:25.425Z,10.50
2022-10-23T04:38:19.495Z,10.40
2022-10-23T04:40:46.300Z,10.50
2022-10-23T04:43:13.089Z,10.50
2022-10-23T04:45:41.225Z,10.40
2022-10-23T04:48:08.050Z,10.40
2022-10-23T04:50:34.898Z,10.40
2022-10-23T04:53:01.725Z,10.60
2022-10-23T04:55:28.592Z,10.50
2022-10-23T04:57:55.407Z,10.70
2022-10-23T05:00:22.561Z,10.40
2022-10-23T05:02:50.681Z,10.40
2022-10-23T05:05:17.985Z,10.40
2022-10-23T05:07:45.110Z,10.50
2022-10-23T05:10:12.138Z,10.40
2022-10-23T05:12:38.938Z,12.10
2022-10-23T05:15:06.937Z,10.40
2022-10-23T05:17:37.519Z,10.40
2022-10-23T05:20:12.604Z,10.40
2022-10-23T05:22:42.743Z,10.40
2022-10-23T05:25:10.103Z,10.40
2022-10-23T05:27:36.904Z,11.60
2022-10-23T05:30:04.790Z,10.40
2022-10-23T05:32:33.183Z,10.40
2022-10-23T05:35:02.855Z,10.40
2022-10-23T05:37:31.561Z,10.50
2022-10-23T05:39:58.469Z,10.60
2022-10-23T05:42:25.296Z,10.50
2022-10-23T05:44:52.067Z,10.50
2022-10-23T05:47:18.841Z,12.00
2022-10-23T05:52:13.055Z,10.60
2022-10-23T05:54:41.976Z,10.60
2022-10-23T05:57:08.893Z,11.30
2022-10-23T05:59:35.746Z,11.10
2022-10-23T06:02:02.701Z,10.70
2022-10-23T06:04:29.597Z,12.40
2022-10-23T06:06:56.374Z,10.80
2022-10-23T06:09:23.166Z,10.80
2022-10-23T06:11:51.294Z,11.90
2022-10-23T06:14:18.109Z,10.90
2022-10-23T06:19:12.807Z,11.00
2022-10-23T06:21:40.474Z,11.20
2022-10-23T06:24:07.880Z,11.20
2022-10-23T06:26:34.724Z,11.10
2022-10-23T06:29:03.726Z,11.20
2022-10-23T06:33:59.117Z,11.20
2022-10-23T06:36:26.700Z,11.30
2022-10-23T06:38:53.551Z,13.20
2022-10-23T06:41:21.849Z,11.40
2022-10-23T06:43:49.972Z,12.80
2022-10-23T06:46:18.747Z,11.40
2022-10-23T06:48:45.642Z,11.40
2022-10-23T06:51:16.580Z,11.50
2022-10-23T06:53:44.358Z,11.60
2022-10-23T06:56:11.776Z,12.40
2022-10-23T06:58:39.759Z,11.60
2022-10-23T07:01:09.017Z,11.70
2022-10-23T07:03:37.401Z,12.70
2022-10-23T07:06:09.033Z,11.70
2022-10-23T07:08:36.550Z,11.80
2022-10-23T07:11:04.427Z,11.90
2022-10-23T07:13:31.279Z,12.00
2022-10-23T07:18:25.563Z,12.10
2022-10-23T07:20:58.787Z,12.20
2022-10-23T07:25:52.861Z,12.30
2022-10-23T07:28:19.668Z,12.50
2022-10-23T07:30:56.434Z,12.50
2022-10-23T07:33:23.494Z,12.60
2022-10-23T07:38:18.911Z,12.70
2022-10-23T07:40:45.875Z,13.20
2022-10-23T07:45:40.207Z,12.80
2022-10-23T07:48:07.064Z,13.90
2022-10-23T07:50:33.837Z,12.90
2022-10-23T07:53:00.649Z,12.90
2022-10-23T07:55:28.808Z,12.90
2022-10-23T07:57:55.649Z,12.90
2022-10-23T08:02:49.431Z,13.00
2022-10-23T08:05:19.019Z,13.00
2022-10-23T08:07:45.848Z,13.10
2022-10-23T08:10:12.678Z,13.50
2022-10-23T08:12:41.293Z,13.90
2022-10-23T08:15:09.258Z,13.40
2022-10-23T08:17:36.358Z,13.50
2022-10-23T08:20:03.722Z,13.60
2022-10-23T08:22:30.547Z,13.60
2022-10-23T08:24:57.384Z,13.70
2022-10-23T08:27:24.206Z,14.40
2022-10-23T08:29:52.398Z,13.80
2022-10-23T08:32:19.254Z,13.70
2022-10-23T08:34:46.183Z,13.80
2022-10-23T08:37:13.003Z,13.90
2022-10-23T08:39:39.813Z,14.30
2022-10-23T08:42:06.777Z,13.90
2022-10-23T08:44:39.809Z,14.60
2022-10-23T08:47:11.778Z,14.10
2022-10-23T08:49:45.448Z,14.20
2022-10-23T08:52:17.625Z,14.20
2022-10-23T08:54:55.573Z,14.30
2022-10-23T08:57:24.129Z,14.20
2022-10-23T08:59:57.703Z,14.30
2022-10-23T09:02:27.778Z,14.50
2022-10-23T09:04:57.236Z,14.40
2022-10-23T09:07:34.082Z,14.40
2022-10-23T09:10:29.431Z,15.30
2022-10-23T09:12:59.500Z,15.80
2022-10-23T09:15:34.930Z,14.80
2022-10-23T09:18:13.836Z,15.00
2022-10-23T09:20:44.703Z,15.10
2022-10-23T09:23:15.798Z,15.10
2022-10-23T09:28:19.155Z,15.10
2022-10-23T09:30:46.398Z,15.20
2022-10-23T09:33:15.860Z,15.30
2022-10-23T09:35:53.596Z,15.90
2022-10-23T09:38:30.150Z,15.50
2022-10-23T09:41:00.031Z,15.50
2022-10-23T09:43:27.625Z,15.60
2022-10-23T09:46:00.656Z,15.60
2022-10-23T09:48:29.474Z,15.70
2022-10-23T09:50:58.097Z,15.80
2022-10-23T09:53:36.994Z,15.80
2022-10-23T09:56:07.889Z,15.90
2022-10-23T09:58:38.540Z,15.90
2022-10-23T10:01:06.152Z,16.00
2022-10-23T10:03:37.259Z,17.30
2022-10-23T10:06:04.975Z,16.20
2022-10-23T10:08:44.364Z,16.30
2022-10-23T10:11:15.865Z,16.30
2022-10-23T10:13:59.869Z,16.60
2022-10-23T10:19:22.784Z,16.60
2022-10-23T10:21:56.465Z,16.70
2022-10-23T10:24:30.254Z,16.80
2022-10-23T10:27:03.381Z,16.80
2022-10-23T10:29:46.352Z,17.00
2022-10-23T10:32:31.967Z,17.00
2022-10-23T10:35:10.066Z,17.00
2022-10-23T10:37:50.784Z,17.00
2022-10-23T10:40:23.637Z,17.00
2022-10-23T10:43:09.587Z,17.60
2022-10-23T10:45:39.588Z,17.30
2022-10-23T10:48:34.825Z,17.20
2022-10-23T10:51:07.545Z,17.30
2022-10-23T10:53:44.497Z,17.40
2022-10-23T10:56:15.312Z,17.80
2022-10-23T10:58:46.652Z,17.50
2022-10-23T11:01:26.315Z,18.00
2022-10-23T11:03:54.994Z,17.60
2022-10-23T11:06:27.305Z,17.60
2022-10-23T11:09:15.602Z,17.60
2022-10-23T11:11:41.246Z,17.60
2022-10-23T11:14:15.509Z,17.60
2022-10-23T11:16:46.403Z,17.60
2022-10-23T11:19:20.575Z,17.60
2022-10-23T11:21:56.254Z,17.60
2022-10-23T11:24:58.487Z,17.70
2022-10-23T11:27:46.659Z,17.70
2022-10-23T11:30:22.256Z,17.70
2022-10-23T11:33:22.961Z,17.70
2022-10-23T11:36:03.835Z,17.90
2022-10-23T11:38:34.537Z,18.00
2022-10-23T11:41:04.204Z,18.10
2022-10-23T11:43:33.299Z,18.20
2022-10-23T11:46:12.444Z,18.50
2022-10-23T11:48:41.527Z,18.20
2022-10-23T11:51:27.013Z,18.30
2022-10-23T11:54:06.057Z,18.40
2022-10-23T11:56:34.101Z,18.50
2022-10-23T11:59:21.352Z,18.40
2022-10-23T12:01:51.212Z,18.40
2022-10-23T12:04:23.474Z,18.40
2022-10-23T12:06:53.341Z,18.50
2022-10-23T12:09:36.158Z,18.50
2022-10-23T12:12:25.928Z,18.70
2022-10-23T12:14:52.754Z,18.50
2022-10-23T12:17:30.484Z,18.60
2022-10-23T12:20:12.427Z,18.60
2022-10-23T12:22:45.264Z,18.70
2022-10-23T12:25:16.265Z,18.80
2022-10-23T12:27:51.603Z,18.70
2022-10-23T12:30:23.955Z,19.30
2022-10-23T12:33:15.712Z,18.70
2022-10-23T12:36:09.299Z,18.70
2022-10-23T12:38:44.242Z,18.80
2022-10-23T12:41:15.151Z,18.80
2022-10-23T12:43:44.263Z,18.70
2022-10-23T12:46:27.975Z,18.70
2022-10-23T12:48:56.622Z,18.70
2022-10-23T12:51:25.456Z,19.80
2022-10-23T12:53:52.303Z,18.80
2022-10-23T12:56:20.742Z,18.80
2022-10-23T12:58:51.396Z,18.60
2022-10-23T13:01:27.371Z,18.60
2022-10-23T13:03:59.646Z,18.60
2022-10-23T13:06:27.625Z,18.50
2022-10-23T13:08:54.845Z,18.50
2022-10-23T13:11:24.469Z,18.50
2022-10-23T13:13:51.426Z,18.40
2022-10-23T13:16:20.282Z,18.10
2022-10-23T13:18:47.584Z,18.00
2022-10-23T13:21:18.391Z,17.90
2022-10-23T13:23:45.793Z,17.80
2022-10-23T13:26:31.692Z,17.80
2022-10-23T13:28:59.431Z,17.70
2022-10-23T13:31:29.958Z,17.60
2022-10-23T13:34:07.046Z,17.60
2022-10-23T13:36:36.697Z,17.60
2022-10-23T13:39:04.795Z,17.60
2022-10-23T13:41:38.246Z,18.90
2022-10-23T13:44:05.275Z,17.70
2022-10-23T13:46:32.525Z,17.70
2022-10-23T13:48:59.743Z,17.70
2022-10-23T13:51:28.427Z,17.70
2022-10-23T13:53:56.574Z,17.70
2022-10-23T13:56:25.653Z,17.80
2022-10-23T13:58:54.306Z,17.90
2022-10-23T14:01:23.702Z,18.00
2022-10-23T14:03:52.141Z,18.20
2022-10-23T14:06:19.500Z,18.10
2022-10-23T14:08:46.799Z,18.20
2022-10-23T14:13:41.898Z,18.20
2022-10-23T14:16:12.874Z,18.30
2022-10-23T14:18:40.126Z,18.20
2022-10-23T14:21:08.745Z,18.30
2022-10-23T14:26:03.065Z,18.00
2022-10-23T14:28:29.893Z,18.20
2022-10-23T14:30:56.743Z,18.00
2022-10-23T14:33:24.925Z,18.00
2022-10-23T14:35:51.819Z,18.00
2022-10-23T14:38:18.660Z,18.80
2022-10-23T14:40:45.470Z,18.00
2022-10-23T14:43:12.287Z,17.90
2022-10-23T14:45:39.727Z,17.90
2022-10-23T14:48:06.785Z,17.70
2022-10-23T14:50:37.079Z,18.80
2022-10-23T14:53:03.933Z,17.50
2022-10-23T14:55:30.942Z,17.60
2022-10-23T14:57:57.776Z,17.60
2022-10-23T15:02:51.722Z,17.60
2022-10-23T15:05:18.780Z,18.50
2022-10-23T15:07:46.975Z,17.60
2022-10-23T15:10:13.837Z,17.50
2022-10-23T15:12:40.993Z,17.50
2022-10-23T15:15:08.971Z,17.70
2022-10-23T15:17:37.106Z,17.50
2022-10-23T15:20:04.645Z,17.50
2022-10-23T15:22:31.469Z,17.40
2022-10-23T15:24:59.701Z,17.40
2022-10-23T15:27:26.660Z,17.80
2022-10-23T15:29:53.512Z,17.30
2022-10-23T15:32:20.316Z,17.20
2022-10-23T15:34:49.592Z,17.10
2022-10-23T15:37:16.468Z,17.10
2022-10-23T15:39:44.253Z,17.30
2022-10-23T15:42:12.494Z,17.00
2022-10-23T15:44:40.146Z,17.00
2022-10-23T15:47:07.187Z,17.50
2022-10-23T15:49:34.309Z,17.00
2022-10-23T15:52:02.261Z,17.00
2022-10-23T15:54:32.028Z,18.80
2022-10-23T15:57:00.196Z,16.90
2022-10-23T15:59:30.523Z,17.00
2022-10-23T16:01:57.697Z,17.00
2022-10-23T16:04:24.758Z,17.00
2022-10-23T16:06:51.612Z,16.80
2022-10-23T16:09:18.463Z,16.80
2022-10-23T16:11:45.421Z,16.90
2022-10-23T16:14:14.013Z,16.80
2022-10-23T16:16:42.306Z,16.90
2022-10-23T16:19:11.349Z,16.80
2022-10-23T16:24:07.664Z,16.70
2022-10-23T16:26:35.715Z,16.60
2022-10-23T16:29:05.211Z,16.60
2022-10-23T16:31:32.030Z,16.60
2022-10-23T16:34:01.695Z,17.90
2022-10-23T16:38:56.439Z,16.50
2022-10-23T16:41:23.222Z,16.50
2022-10-23T16:43:50.327Z,16.50
2022-10-23T16:46:18.967Z,16.50
2022-10-23T16:48:46.620Z,16.40
2022-10-23T16:51:17.180Z,16.40
2022-10-23T16:53:44.980Z,16.40
2022-10-23T16:56:15.100Z,16.40
2022-10-23T16:58:42.981Z,16.30
2022-10-23T17:01:11.813Z,17.60
2022-10-23T17:03:41.200Z,16.40
2022-10-23T17:06:11.204Z,16.40
2022-10-23T17:08:39.887Z,16.40
2022-10-23T17:11:09.092Z,16.50
2022-10-23T17:13:38.494Z,16.50
2022-10-23T17:16:08.078Z,16.50
2022-10-23T17:18:39.888Z,16.50
2022-10-23T17:21:11.688Z,16.60
2022-10-23T17:23:40.061Z,16.50
2022-10-23T17:26:08.113Z,16.40
2022-10-23T17:28:39.858Z,16.30
2022-10-23T17:31:12.763Z,16.30
2022-10-23T17:33:40.107Z,16.10
2022-10-23T17:36:07.553Z,17.10
2022-10-23T17:38:35.768Z,16.00
2022-10-23T17:41:05.126Z,16.00
2022-10-23T17:43:32.338Z,15.90
2022-10-23T17:45:59.271Z,15.90
2022-10-23T17:51:02.051Z,15.80
2022-10-23T17:53:29.207Z,15.80
2022-10-23T17:55:56.341Z,15.90
2022-10-23T17:58:24.883Z,15.90
2022-10-23T18:03:20.064Z,15.90
2022-10-23T18:05:47.112Z,15.90
2022-10-23T18:10:41.542Z,15.80
2022-10-23T18:15:37.052Z,15.80
2022-10-23T18:18:07.728Z,16.50
2022-10-23T18:20:39.985Z,15.80
2022-10-23T18:23:07.064Z,16.10
2022-10-23T18:28:02.544Z,15.70
2022-10-23T18:30:29.658Z,15.80
2022-10-23T18:32:58.214Z,15.70
2022-10-23T18:35:25.512Z,17.10
2022-10-23T18:45:19.661Z,15.60
2022-10-23T18:47:46.695Z,15.60
2022-10-23T18:50:15.047Z,15.50
2022-10-23T18:55:10.233Z,15.50
2022-10-23T18:57:37.434Z,15.50
2022-10-23T19:00:06.298Z,15.50
2022-10-23T19:02:33.270Z,15.50
2022-10-23T19:05:00.327Z,15.50
2022-10-23T19:07:28.624Z,16.30
2022-10-23T19:09:56.265Z,15.50
2022-10-23T19:12:23.471Z,15.40
2022-10-23T19:14:50.281Z,15.40
2022-10-23T19:17:20.602Z,16.10
2022-10-23T19:19:50.406Z,15.70
2022-10-23T19:22:17.392Z,16.20
2022-10-23T19:24:48.482Z,15.30
2022-10-23T19:29:44.676Z,15.20
2022-10-23T19:32:11.866Z,15.10
2022-10-23T19:34:38.926Z,15.20
2022-10-23T19:39:33.183Z,15.00
2022-10-23T19:42:01.649Z,15.00
2022-10-23T19:46:55.856Z,15.20
2022-10-23T19:49:23.896Z,15.20
2022-10-23T19:51:51.591Z,15.20
2022-10-23T19:54:18.804Z,15.10
2022-10-23T19:56:45.587Z,15.10
2022-10-23T19:59:13.835Z,15.20
2022-10-23T20:04:13.316Z,15.10
2022-10-23T20:06:40.122Z,15.20
2022-10-23T20:09:09.705Z,15.10
2022-10-23T20:11:38.462Z,15.50
2022-10-23T20:16:36.279Z,15.10
2022-10-23T20:19:04.251Z,15.10
2022-10-23T20:21:31.079Z,15.20
2022-10-23T20:23:58.274Z,15.30
2022-10-23T20:26:25.119Z,15.20
2022-10-23T20:28:53.910Z,15.40
2022-10-23T20:31:22.970Z,15.20
2022-10-23T20:33:51.164Z,15.20
2022-10-23T20:36:26.343Z,15.20
2022-10-23T20:38:53.646Z,15.10
2022-10-23T20:41:21.017Z,15.20
2022-10-23T20:43:47.923Z,15.00
2022-10-23T20:48:43.959Z,15.10
2022-10-23T20:51:14.230Z,15.10
2022-10-23T20:53:41.983Z,15.40
2022-10-23T20:56:10.331Z,15.20
2022-10-23T20:58:37.165Z,15.30
2022-10-23T21:01:05.481Z,15.20
2022-10-23T21:03:32.673Z,15.20
2022-10-23T21:06:03.651Z,15.20
2022-10-23T21:08:31.970Z,17.00
2022-10-23T21:10:59.464Z,15.10
2022-10-23T21:13:26.398Z,15.20
2022-10-23T21:15:53.259Z,15.10
2022-10-23T21:18:41.002Z,15.00
2022-10-23T21:21:06.955Z,15.00
2022-10-23T21:23:35.310Z,15.00
2022-10-23T21:28:34.472Z,15.00
2022-10-23T21:31:06.270Z,15.00
2022-10-23T21:36:13.530Z,15.00
2022-10-23T21:38:42.286Z,15.00
2022-10-23T21:41:10.438Z,15.00
2022-10-23T21:43:37.419Z,14.90
2022-10-23T21:46:05.179Z,14.70
2022-10-23T21:48:32.148Z,14.70
2022-10-23T21:50:59.270Z,14.70
2022-10-23T21:53:26.862Z,14.70
2022-10-23T21:56:00.156Z,14.90
2022-10-23T21:58:26.938Z,14.70
2022-10-23T22:00:53.720Z,15.00
2022-10-23T22:03:20.520Z,14.60
2022-10-23T22:10:41.538Z,14.70
2022-10-23T22:13:09.727Z,14.60
2022-10-23T22:15:36.561Z,14.40
2022-10-23T22:18:03.473Z,14.30
2022-10-23T22:20:30.309Z,14.40
2022-10-23T22:22:57.100Z,14.60
2022-10-23T22:25:23.876Z,14.40
2022-10-23T22:27:50.653Z,14.50
2022-10-23T22:30:18.859Z,14.50
2022-10-23T22:32:45.944Z,15.10
2022-10-23T22:35:12.862Z,14.50
2022-10-23T22:40:08.419Z,14.60
2022-10-23T22:42:35.890Z,14.60
2022-10-23T22:45:02.707Z,14.70
2022-10-23T22:47:30.854Z,14.70
2022-10-23T22:52:24.942Z,14.80
2022-10-23T22:54:51.729Z,14.80
2022-10-23T22:57:18.544Z,15.00
2022-10-23T22:59:45.404Z,15.30
2022-10-23T23:02:12.348Z,14.80
2022-10-23T23:04:40.521Z,14.80
2022-10-23T23:07:08.323Z,14.80
2022-10-23T23:09:37.168Z,15.40
2022-10-23T23:12:04.368Z,15.00
2022-10-23T23:14:31.168Z,14.90
2022-10-23T23:16:57.941Z,14.90
2022-10-23T23:21:57.051Z,14.90
2022-10-23T23:24:24.214Z,14.80
2022-10-23T23:29:18.968Z,14.80
2022-10-23T23:31:46.018Z,15.40
2022-10-23T23:34:12.784Z,14.70
2022-10-23T23:39:08.452Z,14.70
2022-10-23T23:41:35.277Z,14.70
2022-10-23T23:46:29.293Z,14.60
2022-10-23T23:51:25.183Z,14.60
2022-10-23T23:53:52.689Z,14.50
2022-10-23T23:56:21.314Z,15.00
2022-10-23T23:58:48.322Z,14.50
